Le Boreal — FLSY — position and weather

sailwx.info

Track history (hours):
 
Tides and Currents Weather Stations Pressure Air Temp Water Temp Dewpoint Dewpoint Depression Visibility Wind Speed Wind Dir Waves Ship Positions

Le Boreal

Last reported at 2015-May-23 23:28 UTC. Time now 2015-May-24 13:23 UTC.
Position N 52°27' W 005°49'.

Length 142 m; draft 5.3 m.

Type: Passenger vessel. MMSI: 578000500.

Date/timePositionNaut miles runAvg speedWind from/ knotsBaromVisibWave heightAir tempDewpointWater temp
2015-May-23 23:28N 52°27' W 005°49'1011.0
2015-May-23 22:33N 52°17' W 005°48'1413.3
2015-May-23 21:28N 52°03' W 005°46'8113.8
2015-May-23 15:33N 50°41' W 005°52'1615.3
2015-May-23 14:31N 50°25' W 005°53'20513.6
2015-May-22 23:26N 49°36' W 000°43'1214.0
2015-May-22 22:33N 49°28' W 000°28'1212.5
2015-May-22 21:33N 49°19' W 000°14'3 2.7
2015-May-22 20:33N 49°17' W 000°15'0 0.0
2015-May-22 19:33N 49°17' W 000°15'6 6.1
2015-May-22 18:33N 49°11' W 000°19'1 0.1
2015-May-22 08:29N 49°11' W 000°20'0 0.0
2015-May-22 06:27N 49°11' W 000°20'0 0.0
2015-May-22 05:27N 49°11' W 000°20'1 0.9
2015-May-22 04:33N 49°12' W 000°19'6 5.9
2015-May-22 03:33N 49°17' W 000°15'5 4.6
2015-May-22 02:33N 49°21' W 000°14'5 5.1
2015-May-22 01:33N 49°26' W 000°17'6 5.9
2015-May-22 00:33N 49°32' W 000°19'3 2.8
2015-May-21 23:33N 49°32' W 000°14'6 5.7
2015-May-21 22:33N 49°30' W 000°06'10 9.8
2015-May-21 21:33N 49°26' E 000°07'4 4.3
2015-May-21 20:32N 49°26' E 000°14'0 0.0
2015-May-21 19:32N 49°26' E 000°14'0 0.0
2015-May-21 18:32N 49°26' E 000°14'0 0.0
2015-May-21 17:29N 49°26' E 000°14'0 0.0
2015-May-21 16:32N 49°26' E 000°14'0 0.0
2015-May-21 15:32N 49°26' E 000°14'0 0.0
2015-May-21 14:32N 49°26' E 000°14'0 0.0
2015-May-21 13:32N 49°26' E 000°14'0 0.0
2015-May-21 12:32N 49°26' E 000°14'0 0.0
2015-May-21 11:32N 49°26' E 000°14'0 0.0
2015-May-21 10:32N 49°26' E 000°14'0 0.0
2015-May-21 09:32N 49°26' E 000°14'0 0.0
2015-May-21 08:32N 49°26' E 000°14'0 0.0
2015-May-21 07:32N 49°26' E 000°14'0 0.0
2015-May-21 06:32N 49°26' E 000°14'0 0.0
2015-May-21 05:29N 49°26' E 000°14'0 0.0
2015-May-21 04:32N 49°26' E 000°14'0 0.0
2015-May-21 03:29N 49°26' E 000°14'0 0.0
2015-May-21 02:29N 49°26' E 000°14'0 0.0
2015-May-21 01:32N 49°26' E 000°14'0 0.0
2015-May-21 00:32N 49°26' E 000°14'0 0.0
2015-May-20 23:32N 49°26' E 000°14'0 0.0
2015-May-20 22:33N 49°26' E 000°14'10 9.9
2015-May-20 21:33N 49°28' W 000°01'1312.6
2015-May-20 20:33N 49°19' W 000°15'2 2.3
2015-May-20 19:33N 49°17' W 000°15'6 6.3
2015-May-20 18:33N 49°11' W 000°20'0 0.2
2015-May-20 17:12N 49°11' W 000°20'0 0.0
2015-May-20 16:30N 49°11' W 000°20'0 0.0
2015-May-20 15:21N 49°11' W 000°20'0 0.0
2015-May-20 14:30N 49°11' W 000°20'0 0.0
2015-May-20 13:30N 49°11' W 000°20'0 0.0
2015-May-20 12:15N 49°11' W 000°20'0 0.0
2015-May-20 11:24N 49°11' W 000°20'0 0.0
2015-May-20 09:19N 49°11' W 000°20'0 0.0
2015-May-20 08:29N 49°11' W 000°20'0 0.0
2015-May-20 07:29N 49°11' W 000°20'0 0.0
2015-May-20 06:32N 49°11' W 000°20'0 0.0
2015-May-20 05:32N 49°11' W 000°20'0 0.0
2015-May-20 04:29N 49°11' W 000°20'0 0.1
2015-May-20 03:33N 49°11' W 000°20'7 6.6
2015-May-20 02:33N 49°17' W 000°15'5 5.0
2015-May-20 01:33N 49°22' W 000°14'1110.8
2015-May-20 00:33N 49°29' W 000°26'1110.3
2015-May-19 23:29N 49°35' W 000°40'  
2015-May-16 23:33N 54°24' W 005°11'1211.6
2015-May-16 22:33N 54°35' W 005°13'1211.9
2015-May-16 21:33N 54°47' W 005°15'1312.6
2015-May-16 20:32N 55°00' W 005°14'20 1.2
2015-May-16 04:06N 55°14' W 005°40'815.2
2015-May-16 03:33N 55°14' W 005°54'1312.9
2015-May-16 02:33N 55°21' W 006°13'1313.2
2015-May-16 01:34N 55°29' W 006°32'1312.6
2015-May-16 00:33N 55°38' W 006°47'1212.4
2015-May-15 23:33N 55°50' W 006°52'7 0.2
2015-May-14 02:21N 55°49' W 006°40'810.0
2015-May-14 01:33N 55°41' W 006°40'10 9.4
2015-May-14 00:32N 55°33' W 006°32'1110.9
2015-May-13 23:33N 55°27' W 006°16'  
Track history (hours):
 
Tides and Currents Weather Stations Pressure Air Temp Water Temp Dewpoint Dewpoint Depression Visibility Wind Speed Wind Dir Waves Ship Positions

Le Boreal

Last reported at 2015-May-23 23:28 UTC. Time now 2015-May-24 13:23 UTC.
Position N 52°27' W 005°49'.

Length 142 m; draft 5.3 m.

Type: Passenger vessel. MMSI: 578000500.

Date/timePositionNaut miles runAvg speedWind from/ knotsBaromVisibWave heightAir tempDewpointWater temp
2015-May-23 23:28N 52°27' W 005°49'1011.0
2015-May-23 22:33N 52°17' W 005°48'1413.3
2015-May-23 21:28N 52°03' W 005°46'8113.8
2015-May-23 15:33N 50°41' W 005°52'1615.3
2015-May-23 14:31N 50°25' W 005°53'20513.6
2015-May-22 23:26N 49°36' W 000°43'1214.0
2015-May-22 22:33N 49°28' W 000°28'1212.5
2015-May-22 21:33N 49°19' W 000°14'3 2.7
2015-May-22 20:33N 49°17' W 000°15'0 0.0
2015-May-22 19:33N 49°17' W 000°15'6 6.1
2015-May-22 18:33N 49°11' W 000°19'1 0.1
2015-May-22 08:29N 49°11' W 000°20'0 0.0
2015-May-22 06:27N 49°11' W 000°20'0 0.0
2015-May-22 05:27N 49°11' W 000°20'1 0.9
2015-May-22 04:33N 49°12' W 000°19'6 5.9
2015-May-22 03:33N 49°17' W 000°15'5 4.6
2015-May-22 02:33N 49°21' W 000°14'5 5.1
2015-May-22 01:33N 49°26' W 000°17'6 5.9
2015-May-22 00:33N 49°32' W 000°19'3 2.8
2015-May-21 23:33N 49°32' W 000°14'6 5.7
2015-May-21 22:33N 49°30' W 000°06'10 9.8
2015-May-21 21:33N 49°26' E 000°07'4 4.3
2015-May-21 20:32N 49°26' E 000°14'0 0.0
2015-May-21 19:32N 49°26' E 000°14'0 0.0
2015-May-21 18:32N 49°26' E 000°14'0 0.0
2015-May-21 17:29N 49°26' E 000°14'0 0.0
2015-May-21 16:32N 49°26' E 000°14'0 0.0
2015-May-21 15:32N 49°26' E 000°14'0 0.0
2015-May-21 14:32N 49°26' E 000°14'0 0.0
2015-May-21 13:32N 49°26' E 000°14'0 0.0
2015-May-21 12:32N 49°26' E 000°14'0 0.0
2015-May-21 11:32N 49°26' E 000°14'0 0.0
2015-May-21 10:32N 49°26' E 000°14'0 0.0
2015-May-21 09:32N 49°26' E 000°14'0 0.0
2015-May-21 08:32N 49°26' E 000°14'0 0.0
2015-May-21 07:32N 49°26' E 000°14'0 0.0
2015-May-21 06:32N 49°26' E 000°14'0 0.0
2015-May-21 05:29N 49°26' E 000°14'0 0.0
2015-May-21 04:32N 49°26' E 000°14'0 0.0
2015-May-21 03:29N 49°26' E 000°14'0 0.0
2015-May-21 02:29N 49°26' E 000°14'0 0.0
2015-May-21 01:32N 49°26' E 000°14'0 0.0
2015-May-21 00:32N 49°26' E 000°14'0 0.0
2015-May-20 23:32N 49°26' E 000°14'0 0.0
2015-May-20 22:33N 49°26' E 000°14'10 9.9
2015-May-20 21:33N 49°28' W 000°01'1312.6
2015-May-20 20:33N 49°19' W 000°15'2 2.3
2015-May-20 19:33N 49°17' W 000°15'6 6.3
2015-May-20 18:33N 49°11' W 000°20'0 0.2
2015-May-20 17:12N 49°11' W 000°20'0 0.0
2015-May-20 16:30N 49°11' W 000°20'0 0.0
2015-May-20 15:21N 49°11' W 000°20'0 0.0
2015-May-20 14:30N 49°11' W 000°20'0 0.0
2015-May-20 13:30N 49°11' W 000°20'0 0.0
2015-May-20 12:15N 49°11' W 000°20'0 0.0
2015-May-20 11:24N 49°11' W 000°20'0 0.0
2015-May-20 09:19N 49°11' W 000°20'0 0.0
2015-May-20 08:29N 49°11' W 000°20'0 0.0
2015-May-20 07:29N 49°11' W 000°20'0 0.0
2015-May-20 06:32N 49°11' W 000°20'0 0.0
2015-May-20 05:32N 49°11' W 000°20'0 0.0
2015-May-20 04:29N 49°11' W 000°20'0 0.1
2015-May-20 03:33N 49°11' W 000°20'7 6.6
2015-May-20 02:33N 49°17' W 000°15'5 5.0
2015-May-20 01:33N 49°22' W 000°14'1110.8
2015-May-20 00:33N 49°29' W 000°26'1110.3
2015-May-19 23:29N 49°35' W 000°40'  
2015-May-16 23:33N 54°24' W 005°11'1211.6
2015-May-16 22:33N 54°35' W 005°13'1211.9
2015-May-16 21:33N 54°47' W 005°15'1312.6
2015-May-16 20:32N 55°00' W 005°14'20 1.2
2015-May-16 04:06N 55°14' W 005°40'815.2
2015-May-16 03:33N 55°14' W 005°54'1312.9
2015-May-16 02:33N 55°21' W 006°13'1313.2
2015-May-16 01:34N 55°29' W 006°32'1312.6
2015-May-16 00:33N 55°38' W 006°47'1212.4
2015-May-15 23:33N 55°50' W 006°52'7 0.2
2015-May-14 02:21N 55°49' W 006°40'810.0
2015-May-14 01:33N 55°41' W 006°40'10 9.4
2015-May-14 00:32N 55°33' W 006°32'1110.9
2015-May-13 23:33N 55°27' W 006°16'  

Dump ship's entire track history